createdAt,value
2016-05-09T00:00:42.372Z,0
2016-05-09T00:01:42.406Z,0
2016-05-09T00:02:42.269Z,0
2016-05-09T00:04:42.462Z,0
2016-05-09T00:05:42.370Z,0
2016-05-09T00:06:42.357Z,0
2016-05-09T00:07:42.548Z,0
2016-05-09T00:08:42.566Z,0
2016-05-09T00:09:42.459Z,0
2016-05-09T00:10:42.462Z,0
2016-05-09T00:12:42.498Z,0
2016-05-09T00:14:42.692Z,0
2016-05-09T00:15:42.397Z,0
2016-05-09T00:16:42.744Z,0
2016-05-09T00:17:42.746Z,0
2016-05-09T00:18:56.811Z,0
2016-05-09T00:19:56.986Z,0
2016-05-09T00:20:42.817Z,0
2016-05-09T00:21:42.695Z,0
2016-05-09T00:22:42.885Z,0
2016-05-09T00:23:42.888Z,0
2016-05-09T00:24:42.905Z,0
2016-05-09T00:25:42.924Z,0
2016-05-09T00:26:42.957Z,0
2016-05-09T00:28:44.432Z,0
2016-05-09T00:29:43.029Z,0
2016-05-09T00:30:43.047Z,0
2016-05-09T00:31:43.065Z,0
2016-05-09T00:32:42.943Z,0
2016-05-09T00:33:57.290Z,0
2016-05-09T00:35:42.998Z,0
2016-05-09T00:36:43.204Z,0
2016-05-09T00:37:57.253Z,0
2016-05-09T00:38:43.068Z,0
2016-05-09T00:39:43.243Z,0
2016-05-09T00:40:43.137Z,0
2016-05-09T00:41:43.295Z,0
2016-05-09T00:42:43.142Z,0
2016-05-09T00:43:57.989Z,0
2016-05-09T00:45:43.493Z,0
2016-05-09T00:46:43.247Z,0
2016-05-09T00:47:43.264Z,0
2016-05-09T00:48:43.439Z,0
2016-05-09T00:49:57.644Z,0
2016-05-09T00:50:43.492Z,0
2016-05-09T00:51:43.510Z,0
2016-05-09T00:52:57.559Z,0
2016-05-09T00:53:57.733Z,0
2016-05-09T00:54:43.564Z,0
2016-05-09T00:55:43.583Z,0
2016-05-09T00:57:43.635Z,0
2016-05-09T00:58:43.997Z,0
2016-05-09T00:59:57.875Z,0
2016-05-09T01:00:43.705Z,0
2016-05-09T01:01:43.583Z,0
2016-05-09T01:02:43.758Z,0
2016-05-09T01:03:43.760Z,0
2016-05-09T01:04:43.795Z,0
2016-05-09T01:05:43.813Z,0
2016-05-09T01:06:43.862Z,0
2016-05-09T01:07:58.037Z,0
2016-05-09T01:08:43.883Z,0
2016-05-09T01:09:43.746Z,0
2016-05-09T01:10:43.921Z,0
2016-05-09T01:11:43.954Z,0
2016-05-09T01:13:44.694Z,0
2016-05-09T01:15:44.028Z,0
2016-05-09T01:16:44.046Z,0
2016-05-09T01:17:58.267Z,0
2016-05-09T01:18:44.114Z,0
2016-05-09T01:20:58.322Z,0
2016-05-09T01:21:44.011Z,0
2016-05-09T01:23:12.549Z,0
2016-05-09T01:23:43.908Z,0
2016-05-09T01:24:44.224Z,0
2016-05-09T01:25:58.444Z,0
2016-05-09T01:26:44.135Z,0
2016-05-09T01:27:44.294Z,0
2016-05-09T01:28:44.172Z,0
2016-05-09T01:29:44.190Z,0
2016-05-09T01:30:44.365Z,0
2016-05-09T01:31:58.570Z,0
2016-05-09T01:32:44.416Z,0
2016-05-09T01:33:44.279Z,0
2016-05-09T01:34:44.454Z,0
2016-05-09T01:35:58.659Z,0
2016-05-09T01:36:58.521Z,0
2016-05-09T01:37:44.367Z,0
2016-05-09T01:38:58.715Z,0
2016-05-09T01:39:44.421Z,0
2016-05-09T01:40:44.579Z,0
2016-05-09T01:41:58.473Z,0
2016-05-09T01:42:44.631Z,0
2016-05-09T01:43:44.180Z,0
2016-05-09T01:44:44.668Z,0
2016-05-09T01:45:58.873Z,0
2016-05-09T01:46:58.892Z,0
2016-05-09T01:47:44.739Z,0
2016-05-09T01:48:44.756Z,0
2016-05-09T01:49:44.775Z,0
2016-05-09T01:50:44.652Z,0
2016-05-09T01:51:44.515Z,0
2016-05-09T01:52:59.033Z,0
2016-05-09T01:53:44.864Z,0
2016-05-09T01:54:44.913Z,0
2016-05-09T01:55:44.916Z,0
2016-05-09T01:56:44.919Z,0
2016-05-09T01:57:59.141Z,0
2016-05-09T01:58:44.986Z,0
2016-05-09T01:59:45.005Z,0
2016-05-09T02:00:45.007Z,0
2016-05-09T02:01:45.073Z,0
2016-05-09T02:02:59.247Z,0
2016-05-09T02:03:45.079Z,0
2016-05-09T02:04:44.957Z,0
2016-05-09T02:05:45.130Z,0
2016-05-09T02:06:45.148Z,0
2016-05-09T02:07:45.026Z,0
2016-05-09T02:08:59.218Z,0
2016-05-09T02:10:13.426Z,0
2016-05-09T02:10:59.426Z,0
2016-05-09T02:11:45.271Z,0
2016-05-09T02:12:45.274Z,0
2016-05-09T02:13:45.417Z,0
2016-05-09T02:14:45.327Z,0
2016-05-09T02:15:45.189Z,0
2016-05-09T02:16:45.364Z,0
2016-05-09T02:17:45.241Z,0
2016-05-09T02:18:59.447Z,0
2016-05-09T02:19:45.449Z,0
2016-05-09T02:20:45.452Z,0
2016-05-09T02:21:45.470Z,0
2016-05-09T02:22:59.692Z,0
2016-05-09T02:24:13.891Z,0
2016-05-09T02:24:45.532Z,0
2016-05-09T02:25:45.581Z,0
2016-05-09T02:26:59.772Z,0
2016-05-09T02:27:59.791Z,0
2016-05-09T02:28:45.668Z,0
2016-05-09T02:29:45.654Z,0
2016-05-09T02:30:45.501Z,0
2016-05-09T02:31:45.692Z,0
2016-05-09T02:32:45.554Z,0
2016-05-09T02:33:45.588Z,0
2016-05-09T02:34:59.934Z,0
2016-05-09T02:35:45.640Z,0
2016-05-09T02:36:45.814Z,0
2016-05-09T02:37:45.833Z,0
2016-05-09T02:39:00.023Z,0
2016-05-09T02:40:45.887Z,0
2016-05-09T02:41:45.906Z,0
2016-05-09T02:42:45.784Z,0
2016-05-09T02:43:45.802Z,0
2016-05-09T02:44:45.992Z,0
2016-05-09T02:45:46.011Z,0
2016-05-09T02:46:46.028Z,0
2016-05-09T02:47:46.031Z,0
2016-05-09T02:49:00.253Z,0
2016-05-09T02:50:00.272Z,0
2016-05-09T02:50:45.961Z,0
2016-05-09T02:51:45.824Z,0
2016-05-09T02:52:45.857Z,0
2016-05-09T02:53:46.172Z,0
2016-05-09T02:54:46.190Z,0
2016-05-09T02:55:46.210Z,0
2016-05-09T02:56:46.087Z,0
2016-05-09T02:58:00.449Z,0
2016-05-09T02:59:46.158Z,0
2016-05-09T03:01:00.504Z,0
2016-05-09T03:01:46.351Z,0
2016-05-09T03:02:46.384Z,0
2016-05-09T03:03:46.231Z,0
2016-05-09T03:04:46.405Z,0
2016-05-09T03:06:00.611Z,0
2016-05-09T03:06:46.457Z,0
2016-05-09T03:07:46.492Z,0
2016-05-09T03:08:46.494Z,0
2016-05-09T03:10:00.716Z,0
2016-05-09T03:10:46.390Z,5
2016-05-09T03:11:46.408Z,5
2016-05-09T03:12:46.598Z,5
2016-05-09T03:13:46.851Z,5
2016-05-09T03:14:46.479Z,5
2016-05-09T03:17:00.859Z,5
2016-05-09T03:17:46.691Z,5
2016-05-09T03:18:46.396Z,10
2016-05-09T03:19:46.742Z,10
2016-05-09T03:20:46.620Z,10
2016-05-09T03:22:00.952Z,10
2016-05-09T03:22:46.641Z,10
2016-05-09T03:23:46.816Z,10
2016-05-09T03:24:46.849Z,15
2016-05-09T03:26:01.040Z,15
2016-05-09T03:26:46.730Z,15
2016-05-09T03:27:46.764Z,15
2016-05-09T03:28:46.627Z,20
2016-05-09T03:30:01.129Z,20
2016-05-09T03:30:46.819Z,20
2016-05-09T03:32:01.181Z,20
2016-05-09T03:32:47.012Z,25
2016-05-09T03:33:46.717Z,25
2016-05-09T03:34:47.080Z,25
2016-05-09T03:35:47.082Z,25
2016-05-09T03:37:01.132Z,30
2016-05-09T03:38:01.306Z,30
2016-05-09T03:38:47.154Z,30
2016-05-09T03:40:01.359Z,35
2016-05-09T03:41:01.378Z,35
2016-05-09T03:41:47.051Z,35
2016-05-09T03:42:47.258Z,35
2016-05-09T03:44:02.166Z,40
2016-05-09T03:44:47.123Z,40
2016-05-09T03:46:01.484Z,45
2016-05-09T03:47:01.503Z,45
2016-05-09T03:48:01.364Z,45
2016-05-09T03:49:01.399Z,45
2016-05-09T03:49:47.402Z,50
2016-05-09T03:50:51.107Z,50
2016-05-09T03:51:47.985Z,50
2016-05-09T03:52:47.441Z,55
2016-05-09T03:54:01.662Z,55
2016-05-09T03:54:47.336Z,60
2016-05-09T03:55:47.511Z,60
2016-05-09T03:56:47.436Z,60
2016-05-09T03:57:47.548Z,65
2016-05-09T03:58:47.566Z,65
2016-05-09T03:59:47.599Z,65
2016-05-09T04:01:01.807Z,70
2016-05-09T04:01:47.340Z,70
2016-05-09T04:02:47.499Z,70
2016-05-09T04:03:47.704Z,75
2016-05-09T04:05:47.725Z,75
2016-05-09T04:07:01.932Z,80
2016-05-09T04:07:47.762Z,80
2016-05-09T04:08:47.796Z,85
2016-05-09T04:10:01.845Z,85
2016-05-09T04:10:47.848Z,85
2016-05-09T04:11:47.694Z,90
2016-05-09T04:13:48.310Z,90
2016-05-09T04:14:47.765Z,95
2016-05-09T04:15:47.955Z,95
2016-05-09T04:16:47.833Z,95
2016-05-09T04:17:47.836Z,100
2016-05-09T04:20:02.217Z,105
2016-05-09T04:20:48.078Z,105
2016-05-09T04:22:02.252Z,105
2016-05-09T04:22:47.943Z,110
2016-05-09T04:23:48.118Z,110
2016-05-09T04:25:02.324Z,110
2016-05-09T04:25:48.170Z,115
2016-05-09T04:26:48.047Z,115
2016-05-09T04:27:48.207Z,115
2016-05-09T04:28:48.444Z,120
2016-05-09T04:29:48.259Z,120
2016-05-09T04:31:02.308Z,125
2016-05-09T04:31:48.296Z,125
2016-05-09T04:33:02.501Z,125
2016-05-09T04:34:02.520Z,130
2016-05-09T04:34:48.382Z,130
2016-05-09T04:35:48.228Z,130
2016-05-09T04:36:48.403Z,135
2016-05-09T04:37:48.281Z,135
2016-05-09T04:38:48.455Z,140
2016-05-09T04:39:48.317Z,140
2016-05-09T04:40:48.351Z,155
2016-05-09T04:41:48.525Z,150
2016-05-09T04:42:48.544Z,145
2016-05-09T04:43:49.000Z,150
2016-05-09T04:44:48.440Z,150
2016-05-09T04:45:48.443Z,150
2016-05-09T04:46:48.633Z,150
2016-05-09T04:47:48.650Z,200
2016-05-09T04:48:48.669Z,305
2016-05-09T04:50:02.751Z,380
2016-05-09T04:51:02.908Z,390
2016-05-09T04:51:48.740Z,395
2016-05-09T04:52:48.774Z,400
2016-05-09T04:54:48.810Z,410
2016-05-09T04:55:48.720Z,415
2016-05-09T04:57:03.035Z,420
2016-05-09T04:57:48.725Z,420
2016-05-09T04:59:03.462Z,435
2016-05-09T04:59:49.293Z,440
2016-05-09T05:00:48.951Z,445
2016-05-09T05:01:48.846Z,445
2016-05-09T05:02:49.019Z,445
2016-05-09T05:04:03.226Z,450
2016-05-09T05:05:03.087Z,450
2016-05-09T05:05:49.074Z,455
2016-05-09T05:06:48.952Z,455
2016-05-09T05:07:49.002Z,465
2016-05-09T05:08:48.864Z,460
2016-05-09T05:10:03.226Z,470
2016-05-09T05:10:49.213Z,475
2016-05-09T05:12:03.122Z,485
2016-05-09T05:13:03.453Z,490
2016-05-09T05:13:49.409Z,490
2016-05-09T05:14:49.333Z,495
2016-05-09T05:15:49.351Z,505
2016-05-09T05:16:49.385Z,505
2016-05-09T05:18:03.592Z,510
2016-05-09T05:19:03.469Z,520
2016-05-09T05:19:49.472Z,530
2016-05-09T05:20:49.489Z,530
2016-05-09T05:21:49.367Z,535
2016-05-09T05:22:49.244Z,540
2016-05-09T05:23:49.436Z,545
2016-05-09T05:24:49.454Z,560
2016-05-09T05:26:49.537Z,585
2016-05-09T05:27:49.696Z,590
2016-05-09T05:29:17.952Z,605
2016-05-09T05:29:49.764Z,610
2016-05-09T05:31:49.660Z,625
2016-05-09T05:33:04.037Z,630
2016-05-09T05:33:49.884Z,630
2016-05-09T05:34:49.918Z,635
2016-05-09T05:35:49.937Z,630
2016-05-09T05:36:49.971Z,640
2016-05-09T05:37:50.004Z,635
2016-05-09T05:38:50.023Z,645
2016-05-09T05:41:04.278Z,655
2016-05-09T05:41:50.124Z,665
2016-05-09T05:42:50.159Z,670
2016-05-09T05:44:04.473Z,685
2016-05-09T05:45:04.257Z,690
2016-05-09T05:45:50.260Z,710
2016-05-09T05:46:50.295Z,695
2016-05-09T05:47:50.297Z,705
2016-05-09T05:48:50.347Z,710
2016-05-09T05:49:50.208Z,715
2016-05-09T05:50:50.398Z,720
2016-05-09T05:51:50.135Z,725
2016-05-09T05:52:50.466Z,725
2016-05-09T05:54:04.689Z,735
2016-05-09T05:54:50.534Z,735
2016-05-09T05:55:50.569Z,740
2016-05-09T05:56:50.618Z,750
2016-05-09T05:57:50.636Z,760
2016-05-09T05:58:51.513Z,770
2016-05-09T06:00:18.953Z,780
2016-05-09T06:00:50.609Z,785
2016-05-09T06:01:50.859Z,800
2016-05-09T06:02:50.983Z,795
2016-05-09T06:03:50.999Z,795
2016-05-09T06:04:51.077Z,825
2016-05-09T06:05:50.986Z,840
2016-05-09T06:07:05.192Z,835
2016-05-09T06:07:51.069Z,840
2016-05-09T06:09:05.447Z,840
2016-05-09T06:09:51.310Z,835
2016-05-09T06:10:51.349Z,840
2016-05-09T06:11:51.232Z,830
2016-05-09T06:13:51.693Z,810
2016-05-09T06:14:51.357Z,805
2016-05-09T06:16:05.581Z,790
2016-05-09T06:16:51.585Z,790
2016-05-09T06:17:51.605Z,780
2016-05-09T06:18:51.485Z,780
2016-05-09T06:19:51.677Z,785
2016-05-09T06:21:05.898Z,790
2016-05-09T06:21:51.746Z,785
2016-05-09T06:22:51.312Z,775
2016-05-09T06:23:51.658Z,775
2016-05-09T06:24:51.537Z,775
2016-05-09T06:25:51.572Z,770
2016-05-09T06:26:51.918Z,765
2016-05-09T06:27:51.953Z,775
2016-05-09T06:28:52.002Z,775
2016-05-09T06:29:52.020Z,765
2016-05-09T06:30:51.898Z,770
2016-05-09T06:32:06.275Z,815
2016-05-09T06:32:52.137Z,855
2016-05-09T06:33:52.140Z,985
2016-05-09T06:35:06.064Z,1190
2016-05-09T06:35:51.755Z,1280
2016-05-09T06:36:52.102Z,1290
2016-05-09T06:37:52.135Z,1270
2016-05-09T06:38:52.310Z,1275
2016-05-09T06:39:52.203Z,1265
2016-05-09T06:42:01.068Z,1205
2016-05-09T06:42:52.446Z,1215
2016-05-09T06:43:52.354Z,1230
2016-05-09T06:44:52.561Z,1215
2016-05-09T06:45:52.548Z,1240
2016-05-09T06:46:52.441Z,1280
2016-05-09T06:48:06.803Z,1270
2016-05-09T06:48:52.493Z,1270
2016-05-09T06:49:52.699Z,1250
2016-05-09T06:50:52.576Z,1245
2016-05-09T06:51:52.751Z,1245
2016-05-09T06:53:06.831Z,1280
2016-05-09T06:53:52.834Z,1285
2016-05-09T06:54:52.853Z,1285
2016-05-09T06:55:52.762Z,1320
2016-05-09T06:56:52.781Z,1335
2016-05-09T06:57:52.798Z,1350
2016-05-09T06:59:07.208Z,1345
2016-05-09T06:59:52.882Z,1315
2016-05-09T07:00:53.072Z,1305
2016-05-09T07:02:06.981Z,1300
2016-05-09T07:02:52.827Z,1320
2016-05-09T07:04:07.361Z,1300
2016-05-09T07:04:53.052Z,1285
2016-05-09T07:05:53.241Z,1280
2016-05-09T07:06:53.308Z,1320
2016-05-09T07:07:53.169Z,1345
2016-05-09T07:08:53.360Z,1300
2016-05-09T07:09:53.237Z,1275
2016-05-09T07:10:53.271Z,1265
2016-05-09T07:12:07.649Z,1370
2016-05-09T07:13:07.667Z,1385
2016-05-09T07:13:53.530Z,1355
2016-05-09T07:15:53.425Z,1345
2016-05-09T07:16:53.490Z,1360
2016-05-09T07:17:53.368Z,1340
2016-05-09T07:18:53.699Z,1350
2016-05-09T07:20:53.610Z,1420
2016-05-09T07:22:07.848Z,1370
2016-05-09T07:23:07.881Z,1290
2016-05-09T07:24:08.056Z,1340
2016-05-09T07:24:53.762Z,1370
2016-05-09T07:25:53.952Z,1405
2016-05-09T07:26:53.861Z,1420
2016-05-09T07:28:08.036Z,1425
2016-05-09T07:28:53.945Z,1440
2016-05-09T07:30:54.153Z,1370
2016-05-09T07:32:08.358Z,1420
2016-05-09T07:32:54.065Z,1480
2016-05-09T07:33:53.927Z,1450
2016-05-09T07:35:08.289Z,1410
2016-05-09T07:35:54.167Z,1405
2016-05-09T07:36:54.028Z,1405
2016-05-09T07:37:54.953Z,1475
2016-05-09T07:38:54.425Z,1455
2016-05-09T07:39:54.443Z,1445
2016-05-09T07:40:54.180Z,1480
2016-05-09T07:41:54.370Z,1480
2016-05-09T07:42:54.544Z,1525
2016-05-09T07:43:54.719Z,1535
2016-05-09T07:45:08.816Z,1535
2016-05-09T07:46:08.677Z,1495
2016-05-09T07:46:54.696Z,1545
2016-05-09T07:47:54.574Z,1640
2016-05-09T07:48:54.623Z,1615
2016-05-09T07:49:54.799Z,1570
2016-05-09T07:50:54.743Z,1485
2016-05-09T07:51:54.715Z,1390
2016-05-09T07:52:54.905Z,1360
2016-05-09T07:53:54.814Z,1450
2016-05-09T07:54:54.994Z,1515
2016-05-09T07:55:55.016Z,1500
2016-05-09T07:57:55.115Z,1580
2016-05-09T07:58:55.400Z,1545
2016-05-09T07:59:55.168Z,1555
2016-05-09T08:00:54.873Z,1530
2016-05-09T08:01:55.079Z,1515
2016-05-09T08:02:55.269Z,1530
2016-05-09T08:04:09.474Z,1535
2016-05-09T08:05:04.384Z,1495
2016-05-09T08:06:10.605Z,1535
2016-05-09T08:07:25.514Z,1565
2016-05-09T08:08:13.220Z,1620
2016-05-09T08:09:24.426Z,1570
2016-05-09T08:10:26.570Z,1585
2016-05-09T08:10:55.557Z,1595
2016-05-09T08:12:21.262Z,1600
2016-05-09T08:12:55.171Z,1590
2016-05-09T08:13:55.876Z,1555
2016-05-09T08:14:55.692Z,1590
2016-05-09T08:15:55.976Z,1660
2016-05-09T08:16:55.635Z,1600
2016-05-09T08:17:55.654Z,1600
2016-05-09T08:18:55.828Z,1650
2016-05-09T08:20:55.912Z,1775
2016-05-09T08:21:55.945Z,1855
2016-05-09T08:23:10.010Z,1725
2016-05-09T08:23:56.029Z,1675
2016-05-09T08:24:56.048Z,1770
2016-05-09T08:25:55.972Z,1835
2016-05-09T08:26:55.975Z,1735
2016-05-09T08:27:56.164Z,1735
2016-05-09T08:28:56.214Z,1830
2016-05-09T08:29:56.077Z,1880
2016-05-09T08:31:10.454Z,1850
2016-05-09T08:31:55.988Z,1820
2016-05-09T08:32:56.350Z,1860
2016-05-09T08:33:56.227Z,1815
2016-05-09T08:34:56.105Z,1850
2016-05-09T08:35:56.452Z,1860
2016-05-09T08:36:56.330Z,1875
2016-05-09T08:37:56.535Z,1885
2016-05-09T08:39:10.600Z,1885
2016-05-09T08:39:56.431Z,1885
2016-05-09T08:40:56.325Z,1875
2016-05-09T08:41:56.359Z,1915
2016-05-09T08:42:56.549Z,1935
2016-05-09T08:43:57.067Z,1820
2016-05-09T08:45:10.820Z,1875
2016-05-09T08:45:56.495Z,1920
2016-05-09T08:46:56.700Z,1895
2016-05-09T08:47:56.890Z,1950
2016-05-09T08:48:56.925Z,1945
2016-05-09T08:50:11.005Z,1945
2016-05-09T08:51:11.180Z,1895
2016-05-09T08:51:57.058Z,1905
2016-05-09T08:52:57.092Z,1980
2016-05-09T08:55:11.175Z,2000
2016-05-09T08:55:57.194Z,2040
2016-05-09T08:56:57.055Z,1985
2016-05-09T09:00:57.207Z,2055
2016-05-09T09:01:57.241Z,2060
2016-05-09T09:02:57.290Z,2010
2016-05-09T09:03:57.308Z,1950
2016-05-09T09:05:11.546Z,1905
2016-05-09T09:06:11.751Z,2090
2016-05-09T09:06:57.441Z,2100
2016-05-09T09:07:57.475Z,2045
2016-05-09T09:08:57.666Z,2090
2016-05-09T09:10:11.887Z,2015
2016-05-09T09:11:26.108Z,2040
2016-05-09T09:12:11.970Z,2075
2016-05-09T09:12:57.802Z,2060
2016-05-09T09:13:57.710Z,2045
2016-05-09T09:14:57.916Z,2005
2016-05-09T09:15:57.919Z,1900
2016-05-09T09:16:57.953Z,1840
2016-05-09T09:18:12.190Z,2020
2016-05-09T09:18:57.881Z,2075
2016-05-09T09:21:12.307Z,2120
2016-05-09T09:21:57.997Z,2100
2016-05-09T09:23:12.375Z,2050
2016-05-09T09:24:12.409Z,2145
2016-05-09T09:24:58.100Z,2175
2016-05-09T09:25:58.289Z,2170
2016-05-09T09:26:58.011Z,2075
2016-05-09T09:27:58.358Z,1925
2016-05-09T09:28:58.266Z,1925
2016-05-09T09:29:58.285Z,1890
2016-05-09T09:33:12.730Z,2050
2016-05-09T09:34:12.608Z,1965
2016-05-09T09:34:58.627Z,1760
2016-05-09T09:35:58.504Z,1865
2016-05-09T09:37:12.882Z,1900
2016-05-09T09:37:58.588Z,2005
2016-05-09T09:38:58.605Z,2020
2016-05-09T09:39:58.812Z,1915
2016-05-09T09:42:58.757Z,2075
2016-05-09T09:44:13.072Z,2110
2016-05-09T09:44:58.841Z,2105
2016-05-09T09:45:58.703Z,2100
2016-05-09T09:46:58.908Z,2165
2016-05-09T09:48:13.287Z,2025
2016-05-09T09:48:59.132Z,2045
2016-05-09T09:50:13.354Z,2090
2016-05-09T09:50:59.216Z,2080
2016-05-09T09:51:59.234Z,2045
2016-05-09T09:52:59.284Z,2125
2016-05-09T09:53:59.334Z,2110
2016-05-09T09:54:59.212Z,2035
2016-05-09T09:56:13.620Z,1990
2016-05-09T09:56:59.264Z,2020
2016-05-09T09:58:13.500Z,605
2016-05-09T09:58:59.628Z,1805
2016-05-09T10:00:13.724Z,2060
2016-05-09T10:00:59.586Z,2220
2016-05-09T10:01:59.606Z,2215
2016-05-09T10:02:59.655Z,2040
2016-05-09T10:03:59.517Z,2215
2016-05-09T10:04:59.395Z,2250
2016-05-09T10:05:59.757Z,480
2016-05-09T10:07:13.805Z,1700
2016-05-09T10:07:59.824Z,2230
2016-05-09T10:08:59.702Z,2215
2016-05-09T10:10:13.907Z,2100
2016-05-09T10:10:59.926Z,2135
2016-05-09T10:11:59.648Z,2165
2016-05-09T10:12:59.994Z,2270
2016-05-09T10:14:13.919Z,2200
2016-05-09T10:15:00.062Z,2180
2016-05-09T10:15:59.784Z,2350
2016-05-09T10:17:00.130Z,2420
2016-05-09T10:18:00.195Z,2140
2016-05-09T10:19:00.042Z,2275
2016-05-09T10:20:00.091Z,2230
2016-05-09T10:21:14.312Z,2365
2016-05-09T10:22:14.518Z,2335
2016-05-09T10:23:00.349Z,1730
2016-05-09T10:24:00.414Z,2345
2016-05-09T10:25:00.417Z,1000
2016-05-09T10:26:00.311Z,945
2016-05-09T10:27:14.531Z,2300
2016-05-09T10:28:00.222Z,2225
2016-05-09T10:29:01.053Z,1835
2016-05-09T10:30:14.822Z,2120
2016-05-09T10:31:00.636Z,2390
2016-05-09T10:32:00.670Z,2460
2016-05-09T10:33:00.719Z,2435
2016-05-09T10:34:00.739Z,2360
2016-05-09T10:35:00.788Z,2435
2016-05-09T10:36:00.838Z,2270
2016-05-09T10:37:15.043Z,2425
2016-05-09T10:38:00.749Z,2320
2016-05-09T10:39:02.063Z,2280
2016-05-09T10:40:15.144Z,2355
2016-05-09T10:41:15.038Z,2380
2016-05-09T10:42:01.025Z,2425
2016-05-09T10:43:00.919Z,2330
2016-05-09T10:44:01.109Z,2295
2016-05-09T10:46:01.020Z,2395
2016-05-09T10:48:01.104Z,2400
2016-05-09T10:49:01.123Z,2195
2016-05-09T10:50:01.312Z,2250
2016-05-09T10:51:01.190Z,2175
2016-05-09T10:52:15.567Z,2370
2016-05-09T10:53:01.429Z,2355
2016-05-09T10:54:01.307Z,2375
2016-05-09T10:55:01.185Z,2350
2016-05-09T10:56:15.720Z,1320
2016-05-09T10:57:01.565Z,2365
2016-05-09T10:58:01.459Z,2235
2016-05-09T10:59:16.555Z,2360
2016-05-09T11:00:02.089Z,2370
2016-05-09T11:01:01.701Z,2340
2016-05-09T11:02:15.938Z,2300
2016-05-09T11:03:01.785Z,2295
2016-05-09T11:04:01.663Z,2500
2016-05-09T11:05:16.040Z,2480
2016-05-09T11:06:01.746Z,2580
2016-05-09T11:07:01.921Z,2265
2016-05-09T11:08:01.970Z,2240
2016-05-09T11:09:16.191Z,2360
2016-05-09T11:10:01.710Z,520
2016-05-09T11:11:01.899Z,1280
2016-05-09T11:12:01.793Z,630
2016-05-09T11:13:01.813Z,495
2016-05-09T11:14:02.174Z,430
2016-05-09T11:15:02.224Z,390
2016-05-09T11:16:02.226Z,330
2016-05-09T11:17:16.306Z,390
2016-05-09T11:18:16.325Z,395
2016-05-09T11:19:02.343Z,370
2016-05-09T11:20:16.549Z,370
2016-05-09T11:21:16.270Z,370
2016-05-09T11:22:16.617Z,390
2016-05-09T11:23:02.464Z,380
2016-05-09T11:25:16.720Z,355
2016-05-09T11:26:02.565Z,335
2016-05-09T11:27:02.600Z,335
2016-05-09T11:28:16.806Z,340
2016-05-09T11:29:02.573Z,340
2016-05-09T11:30:02.544Z,330
2016-05-09T11:31:02.736Z,330
2016-05-09T11:32:02.816Z,330
2016-05-09T11:33:16.991Z,345
2016-05-09T11:34:02.508Z,355
2016-05-09T11:35:17.042Z,360
2016-05-09T11:36:16.936Z,375
2016-05-09T11:37:02.767Z,390
2016-05-09T11:38:02.958Z,405
2016-05-09T11:40:03.025Z,410
2016-05-09T11:41:03.059Z,355
2016-05-09T11:42:03.077Z,305
2016-05-09T11:43:03.111Z,350
2016-05-09T11:44:04.708Z,345
2016-05-09T11:45:02.882Z,330
2016-05-09T11:46:03.197Z,330
2016-05-09T11:47:03.106Z,295
2016-05-09T11:48:03.266Z,315
2016-05-09T11:49:17.471Z,320
2016-05-09T11:50:03.332Z,320
2016-05-09T11:51:03.382Z,325
2016-05-09T11:52:03.245Z,335
2016-05-09T11:53:03.248Z,335
2016-05-09T11:54:03.469Z,385
2016-05-09T11:55:03.331Z,370
2016-05-09T11:56:03.348Z,360
2016-05-09T11:57:03.539Z,350
2016-05-09T11:58:03.418Z,345
2016-05-09T11:59:17.482Z,290
2016-05-09T12:01:03.503Z,315
2016-05-09T12:02:03.381Z,315
2016-05-09T12:03:03.728Z,330
2016-05-09T12:04:03.590Z,340
2016-05-09T12:05:17.967Z,345
2016-05-09T12:06:03.797Z,335
2016-05-09T12:07:03.816Z,325
2016-05-09T12:08:03.554Z,305
2016-05-09T12:09:03.728Z,295
2016-05-09T12:10:03.777Z,320
2016-05-09T12:11:03.952Z,330
2016-05-09T12:14:03.741Z,315
2016-05-09T12:15:03.932Z,310
2016-05-09T12:17:04.124Z,305
2016-05-09T12:18:04.158Z,295
2016-05-09T12:19:04.021Z,275
2016-05-09T12:20:18.382Z,330
2016-05-09T12:21:04.088Z,355
2016-05-09T12:22:18.310Z,350
2016-05-09T12:23:04.141Z,330
2016-05-09T12:24:04.331Z,295
2016-05-09T12:25:04.348Z,355
2016-05-09T12:26:04.383Z,340
2016-05-09T12:27:04.401Z,360
2016-05-09T12:28:04.435Z,335
2016-05-09T12:29:04.485Z,320
2016-05-09T12:30:04.487Z,280
2016-05-09T12:32:04.243Z,290
2016-05-09T12:33:04.449Z,320
2016-05-09T12:35:04.642Z,305
2016-05-09T12:37:04.538Z,265
2016-05-09T12:38:04.572Z,290
2016-05-09T12:39:04.605Z,300
2016-05-09T12:40:04.780Z,310
2016-05-09T12:41:04.658Z,300
2016-05-09T12:42:04.817Z,290
2016-05-09T12:43:04.694Z,290
2016-05-09T12:44:19.056Z,270
2016-05-09T12:46:04.781Z,285
2016-05-09T12:48:04.833Z,280
2016-05-09T12:49:05.023Z,285
2016-05-09T12:50:12.245Z,295
2016-05-09T12:51:22.029Z,320
2016-05-09T12:52:19.297Z,315
2016-05-09T12:53:19.315Z,280
2016-05-09T12:54:04.879Z,250
2016-05-09T12:55:04.899Z,275
2016-05-09T12:56:04.933Z,290
2016-05-09T12:57:05.232Z,265
2016-05-09T12:58:19.454Z,260
2016-05-09T12:59:19.331Z,265
2016-05-09T13:00:05.334Z,280
2016-05-09T13:01:05.353Z,285
2016-05-09T13:02:05.371Z,295
2016-05-09T13:03:05.092Z,305
2016-05-09T13:04:05.439Z,315
2016-05-09T13:05:05.472Z,310
2016-05-09T13:06:05.881Z,270
2016-05-09T13:07:05.525Z,290
2016-05-09T13:08:19.731Z,260
2016-05-09T13:09:05.436Z,280
2016-05-09T13:10:05.439Z,330
2016-05-09T13:11:05.472Z,350
2016-05-09T13:12:05.647Z,285
2016-05-09T13:13:05.666Z,300
2016-05-09T13:14:05.731Z,290
2016-05-09T13:15:05.734Z,250
2016-05-09T13:16:05.768Z,245
2016-05-09T13:18:05.819Z,215
2016-05-09T13:19:05.683Z,205
2016-05-09T13:20:05.732Z,235
2016-05-09T13:21:05.750Z,255
2016-05-09T13:22:05.940Z,260
2016-05-09T13:23:05.787Z,270
2016-05-09T13:24:20.164Z,275
2016-05-09T13:25:06.011Z,265
2016-05-09T13:26:06.029Z,245
2016-05-09T13:27:19.938Z,225
2016-05-09T13:28:06.081Z,240
2016-05-09T13:29:05.974Z,245
2016-05-09T13:30:05.993Z,205
2016-05-09T13:32:06.045Z,210
2016-05-09T13:33:20.407Z,245
2016-05-09T13:34:06.097Z,250
2016-05-09T13:35:06.273Z,250
2016-05-09T13:37:20.371Z,250
2016-05-09T13:38:20.545Z,260
2016-05-09T13:39:06.267Z,265
2016-05-09T13:40:20.597Z,285
2016-05-09T13:41:06.444Z,285
2016-05-09T13:42:06.463Z,280
2016-05-09T13:43:06.341Z,270
2016-05-09T13:44:06.436Z,265
2016-05-09T13:46:06.583Z,255
2016-05-09T13:48:06.494Z,245
2016-05-09T13:49:06.684Z,240
2016-05-09T13:50:06.530Z,230
2016-05-09T13:51:06.408Z,230
2016-05-09T13:52:20.943Z,240
2016-05-09T13:53:06.618Z,235
2016-05-09T13:54:06.807Z,235
2016-05-09T13:55:21.029Z,240
2016-05-09T13:57:06.894Z,245
2016-05-09T13:58:06.912Z,240
2016-05-09T13:59:06.946Z,230
2016-05-09T14:00:21.495Z,230
2016-05-09T14:01:21.185Z,225
2016-05-09T14:02:06.860Z,225
2016-05-09T14:03:07.051Z,225
2016-05-09T14:04:07.084Z,225
2016-05-09T14:05:06.946Z,225
2016-05-09T14:06:07.137Z,225
2016-05-09T14:07:07.014Z,225
2016-05-09T14:08:07.017Z,225
2016-05-09T14:09:07.223Z,230
2016-05-09T14:10:21.272Z,240
2016-05-09T14:12:07.136Z,250
2016-05-09T14:13:07.311Z,265
2016-05-09T14:14:07.205Z,280
2016-05-09T14:16:07.241Z,215
2016-05-09T14:17:07.275Z,205
2016-05-09T14:18:21.638Z,215
2016-05-09T14:20:21.533Z,215
2016-05-09T14:21:07.380Z,210
2016-05-09T14:22:07.414Z,210
2016-05-09T14:23:21.791Z,210
2016-05-09T14:24:07.732Z,210
2016-05-09T14:25:07.484Z,210
2016-05-09T14:26:07.707Z,215
2016-05-09T14:27:21.927Z,215
2016-05-09T14:28:07.571Z,215
2016-05-09T14:30:08.842Z,220
2016-05-09T14:31:22.001Z,230
2016-05-09T14:32:07.863Z,235
2016-05-09T14:33:07.865Z,250
2016-05-09T14:34:07.728Z,265
2016-05-09T14:35:22.106Z,240
2016-05-09T14:36:07.951Z,225
2016-05-09T14:37:22.157Z,200
2016-05-09T14:38:07.988Z,190
2016-05-09T14:39:07.881Z,195
2016-05-09T14:40:07.744Z,195
2016-05-09T14:41:07.918Z,195
2016-05-09T14:43:22.158Z,195
2016-05-09T14:44:08.363Z,195
2016-05-09T14:45:08.491Z,195
2016-05-09T14:46:08.213Z,195
2016-05-09T14:47:08.106Z,195
2016-05-09T14:48:22.312Z,195
2016-05-09T14:49:22.486Z,195
2016-05-09T14:50:08.176Z,195
2016-05-09T14:51:08.194Z,195
2016-05-09T14:52:22.588Z,200